Oakland, NJ (07436)

12:16 PM EDT on June 02, 2015 (GMT -0400)
83 Oakland-Hiawatha Blvd | | Change Station
CLOSE
Current Station
Personal Weather Station
Location: Oakland-Hiawatha, NJ
Elevation: 295 ft
Nearby Weather Stations

Elev 295 ft 41.03 °N, 74.24 °W | Updated 5 seconds ago

Overcast
Overcast
52.3 °F
Feels Like 52.3 °F
N
0.0
Wind Variable Wind from ENE
Gusts 0.0 mph

Today
High -- | Low -- °F
--% Chance of Precip.
Yesterday
High -- | Low -- °F
Precip. -- in
5:26 AM 8:23 PM
Full, 100% visible
Pressure 30.17 in
Visibility 7.0 miles
Clouds Overcast 900 ft
Dew Point 51 °F
Humidity 96%
Rainfall 0.05 in
Snow Depth Not available.
UV 3 out of 12
Pollen .90 out of 12
Air Quality Not available.
Flu Activity Sporadic
METAR KCDW 021553Z VRB04KT 7SM OVC009 12/09 A3016 RMK AO2 RAB25E42 SLP217 P0000 T01170094

More Conditions Fewer Conditions

Pressure 30.17 in
Visibility 7.0 miles
Clouds Overcast 900 ft
Dew Point 51 °F
Humidity 96%
Rainfall 0.05 in
Snow Depth Not available.
UV 3 out of 12
Pollen .90 out of 12
Air Quality Not available.
Flu Activity Sporadic
METAR KCDW 021553Z VRB04KT 7SM OVC009 12/09 A3016 RMK AO2 RAB25E42 SLP217 P0000 T01170094

More Conditions Fewer Conditions

10-Day Weather Forecast

Almanac

Astronomy

Jun. 02, 2015 Rise Set
Actual Time
Civil Twilight
Nautical Twilight
Astronomical Twilight
Moon
Length of Visible Light
Length of Day
Tomorrow will be .
, % of the Moon is Illuminated

Today's Extremes

State Highs State Lows

Community

WunderPhotos

Upload Photos

1,825,973 photos uploaded!

WunderBlogs® & News

Nearby

Air Quality

  Air Quality AQ Index Pollutant
Not available.

Snow Depth

Station Depth Elevation

Earthquake Activity

City Distance Mag. Time & Date
Minimum magnitude displayed is 2.5.

Coastal Water Temperatures

Place Temperature

Stations

Nearby Weather Stations

Station Location Temp. Windchill Dew Point Humidity Wind Precip. Elev Updated Type